createdAt,value
2022-11-06T00:00:52.855Z,0.00
2022-11-06T00:01:52.945Z,0.00
2022-11-06T00:02:52.898Z,0.00
2022-11-06T00:03:52.840Z,0.00
2022-11-06T00:04:52.815Z,0.00
2022-11-06T00:05:52.801Z,0.00
2022-11-06T00:06:52.792Z,0.00
2022-11-06T00:07:52.814Z,0.00
2022-11-06T00:08:52.796Z,0.00
2022-11-06T00:09:52.770Z,0.00
2022-11-06T00:10:52.744Z,0.00
2022-11-06T00:11:52.755Z,0.00
2022-11-06T00:12:52.735Z,0.00
2022-11-06T00:13:52.713Z,0.00
2022-11-06T00:14:52.703Z,0.00
2022-11-06T00:15:52.704Z,0.00
2022-11-06T00:16:52.679Z,0.00
2022-11-06T00:17:52.675Z,0.00
2022-11-06T00:18:52.667Z,0.00
2022-11-06T00:19:52.664Z,0.00
2022-11-06T00:20:52.636Z,0.00
2022-11-06T00:21:52.647Z,0.00
2022-11-06T00:22:52.620Z,0.00
2022-11-06T00:23:52.640Z,0.00
2022-11-06T00:24:52.612Z,0.00
2022-11-06T00:25:52.587Z,0.00
2022-11-06T00:26:54.542Z,0.00
2022-11-06T00:27:52.563Z,0.00
2022-11-06T00:28:52.550Z,0.00
2022-11-06T00:29:52.557Z,0.00
2022-11-06T00:30:52.532Z,0.00
2022-11-06T00:31:52.531Z,0.00
2022-11-06T00:32:52.520Z,0.00
2022-11-06T00:33:52.491Z,0.00
2022-11-06T00:34:52.525Z,0.00
2022-11-06T00:35:52.478Z,0.00
2022-11-06T00:36:52.473Z,0.00
2022-11-06T00:37:52.457Z,0.00
2022-11-06T00:38:52.442Z,0.00
2022-11-06T00:39:52.450Z,0.00
2022-11-06T00:40:52.445Z,0.00
2022-11-06T00:41:52.418Z,0.00
2022-11-06T00:42:52.423Z,0.00
2022-11-06T00:43:52.391Z,0.00
2022-11-06T00:44:52.368Z,0.00
2022-11-06T00:45:52.372Z,0.00
2022-11-06T00:46:52.365Z,0.00
2022-11-06T00:47:52.379Z,0.00
2022-11-06T00:48:52.333Z,0.00
2022-11-06T00:49:52.323Z,0.00
2022-11-06T00:50:52.335Z,0.00
2022-11-06T00:51:52.302Z,0.00
2022-11-06T00:52:52.289Z,0.00
2022-11-06T00:53:52.280Z,0.00
2022-11-06T00:54:52.273Z,0.00
2022-11-06T00:55:52.277Z,0.00
2022-11-06T00:56:52.255Z,0.00
2022-11-06T00:57:52.247Z,0.00
2022-11-06T00:58:52.218Z,0.00
2022-11-06T00:59:52.204Z,0.00
2022-11-06T01:00:52.200Z,0.00
2022-11-06T01:01:52.347Z,0.00
2022-11-06T01:02:52.374Z,0.00
2022-11-06T01:03:52.181Z,0.00
2022-11-06T01:04:52.156Z,0.00
2022-11-06T01:05:52.145Z,0.00
2022-11-06T01:06:52.136Z,0.00
2022-11-06T01:07:52.143Z,0.00
2022-11-06T01:08:52.113Z,0.00
2022-11-06T01:09:52.114Z,0.00
2022-11-06T01:10:52.096Z,0.00
2022-11-06T01:12:12.249Z,0.00
2022-11-06T01:12:53.079Z,0.00
2022-11-06T01:13:52.058Z,0.00
2022-11-06T01:14:52.054Z,0.00
2022-11-06T01:15:52.049Z,0.00
2022-11-06T01:16:52.042Z,0.00
2022-11-06T01:17:52.024Z,0.00
2022-11-06T01:18:52.015Z,0.00
2022-11-06T01:19:52.009Z,0.00
2022-11-06T01:20:51.975Z,0.00
2022-11-06T01:21:51.973Z,0.00
2022-11-06T01:22:51.952Z,0.00
2022-11-06T01:23:51.955Z,0.00
2022-11-06T01:24:52.017Z,0.00
2022-11-06T01:25:51.930Z,0.00
2022-11-06T01:27:24.956Z,0.00
2022-11-06T01:27:52.939Z,0.00
2022-11-06T01:28:51.915Z,0.00
2022-11-06T01:29:51.876Z,0.00
2022-11-06T01:30:51.870Z,0.00
2022-11-06T01:31:51.861Z,0.00
2022-11-06T01:32:51.855Z,0.00
2022-11-06T01:33:51.849Z,0.00
2022-11-06T01:34:51.828Z,0.00
2022-11-06T01:35:51.807Z,0.00
2022-11-06T01:36:51.817Z,0.00
2022-11-06T01:37:51.821Z,0.00
2022-11-06T01:38:51.790Z,0.00
2022-11-06T01:39:51.789Z,0.00
2022-11-06T01:40:51.753Z,0.00
2022-11-06T01:41:51.745Z,0.00
2022-11-06T01:42:51.740Z,0.00
2022-11-06T01:43:51.751Z,0.00
2022-11-06T01:44:51.721Z,0.00
2022-11-06T01:45:51.705Z,0.00
2022-11-06T01:46:51.688Z,0.00
2022-11-06T01:47:51.682Z,0.00
2022-11-06T01:48:51.665Z,0.00
2022-11-06T01:49:51.682Z,0.00
2022-11-06T01:50:51.668Z,0.00
2022-11-06T01:51:51.641Z,0.00
2022-11-06T01:52:51.631Z,0.00
2022-11-06T01:53:51.614Z,0.00
2022-11-06T01:54:51.615Z,0.00
2022-11-06T01:55:51.595Z,0.00
2022-11-06T01:56:51.595Z,0.00
2022-11-06T01:57:51.574Z,0.00
2022-11-06T01:58:51.562Z,0.00
2022-11-06T01:59:51.567Z,0.00
2022-11-06T02:00:51.553Z,0.00
2022-11-06T02:01:51.679Z,0.00
2022-11-06T02:02:51.671Z,0.00
2022-11-06T02:03:51.506Z,0.00
2022-11-06T02:04:51.503Z,0.00
2022-11-06T02:05:51.517Z,0.00
2022-11-06T02:06:51.473Z,0.00
2022-11-06T02:07:51.473Z,0.00
2022-11-06T02:08:51.453Z,0.00
2022-11-06T02:09:51.438Z,0.00
2022-11-06T02:10:51.423Z,0.00
2022-11-06T02:11:51.431Z,0.00
2022-11-06T02:12:51.400Z,0.00
2022-11-06T02:13:51.389Z,0.00
2022-11-06T02:14:51.397Z,0.00
2022-11-06T02:15:51.390Z,0.00
2022-11-06T02:16:51.375Z,0.00
2022-11-06T02:17:51.356Z,0.00
2022-11-06T02:18:51.353Z,0.00
2022-11-06T02:19:51.356Z,0.00
2022-11-06T02:20:51.331Z,0.00
2022-11-06T02:21:51.306Z,0.00
2022-11-06T02:22:51.297Z,0.00
2022-11-06T02:23:51.282Z,0.00
2022-11-06T02:24:51.277Z,0.00
2022-11-06T02:25:51.275Z,0.00
2022-11-06T02:26:51.265Z,0.00
2022-11-06T02:27:51.240Z,0.00
2022-11-06T02:28:51.224Z,0.00
2022-11-06T02:29:51.235Z,0.00
2022-11-06T02:30:51.212Z,0.00
2022-11-06T02:31:51.339Z,0.00
2022-11-06T02:32:51.194Z,0.00
2022-11-06T02:33:51.168Z,0.00
2022-11-06T02:34:51.167Z,0.00
2022-11-06T02:35:51.185Z,0.00
2022-11-06T02:36:51.143Z,0.00
2022-11-06T02:37:51.149Z,0.00
2022-11-06T02:38:51.146Z,0.00
2022-11-06T02:39:51.119Z,0.00
2022-11-06T02:40:51.097Z,0.00
2022-11-06T02:41:51.100Z,0.00
2022-11-06T02:42:51.080Z,0.00
2022-11-06T02:43:51.058Z,0.00
2022-11-06T02:44:51.046Z,0.00
2022-11-06T02:45:51.045Z,0.00
2022-11-06T02:46:51.044Z,0.00
2022-11-06T02:47:51.054Z,0.00
2022-11-06T02:48:51.016Z,0.00
2022-11-06T02:49:51.014Z,0.00
2022-11-06T02:50:51.006Z,0.00
2022-11-06T02:51:50.976Z,0.00
2022-11-06T02:52:51.022Z,0.00
2022-11-06T02:53:50.963Z,0.00
2022-11-06T02:54:50.941Z,0.00
2022-11-06T02:55:50.934Z,0.00
2022-11-06T02:56:50.935Z,0.00
2022-11-06T02:57:50.904Z,0.00
2022-11-06T02:58:50.918Z,0.00
2022-11-06T02:59:50.891Z,0.00
2022-11-06T03:00:50.903Z,0.00
2022-11-06T03:01:50.981Z,0.00
2022-11-06T03:02:51.068Z,0.00
2022-11-06T03:03:50.878Z,0.00
2022-11-06T03:04:50.848Z,0.00
2022-11-06T03:05:50.823Z,0.00
2022-11-06T03:06:50.828Z,0.00
2022-11-06T03:07:50.808Z,0.00
2022-11-06T03:08:50.784Z,0.00
2022-11-06T03:09:50.786Z,0.00
2022-11-06T03:10:50.776Z,0.00
2022-11-06T03:11:50.778Z,0.00
2022-11-06T03:12:50.746Z,0.00
2022-11-06T03:13:50.730Z,0.00
2022-11-06T03:14:50.761Z,0.00
2022-11-06T03:15:50.720Z,0.00
2022-11-06T03:16:50.721Z,0.00
2022-11-06T03:17:50.708Z,0.00
2022-11-06T03:18:50.681Z,0.00
2022-11-06T03:19:50.691Z,0.00
2022-11-06T03:20:50.695Z,0.00
2022-11-06T03:21:50.660Z,0.00
2022-11-06T03:22:50.642Z,0.00
2022-11-06T03:23:50.645Z,0.00
2022-11-06T03:24:50.612Z,0.00
2022-11-06T03:25:50.601Z,0.00
2022-11-06T03:26:50.599Z,0.00
2022-11-06T03:27:50.572Z,0.00
2022-11-06T03:28:50.564Z,0.00
2022-11-06T03:29:50.557Z,0.00
2022-11-06T03:30:50.551Z,0.00
2022-11-06T03:31:50.535Z,0.00
2022-11-06T03:32:50.556Z,0.00
2022-11-06T03:33:50.517Z,0.00
2022-11-06T03:34:50.512Z,0.00
2022-11-06T03:35:50.536Z,0.00
2022-11-06T03:36:50.506Z,0.00
2022-11-06T03:37:50.479Z,0.00
2022-11-06T03:38:50.470Z,0.00
2022-11-06T03:39:50.474Z,0.00
2022-11-06T03:40:50.439Z,0.00
2022-11-06T03:41:50.427Z,0.00
2022-11-06T03:42:50.410Z,0.00
2022-11-06T03:43:50.418Z,0.00
2022-11-06T03:44:50.394Z,0.00
2022-11-06T03:45:50.403Z,0.00
2022-11-06T03:46:50.393Z,0.00
2022-11-06T03:47:50.360Z,0.00
2022-11-06T03:48:50.366Z,0.00
2022-11-06T03:49:50.337Z,0.00
2022-11-06T03:50:50.322Z,0.00
2022-11-06T03:51:50.355Z,0.00
2022-11-06T03:52:50.305Z,0.00
2022-11-06T03:53:50.293Z,0.00
2022-11-06T03:54:50.277Z,0.00
2022-11-06T03:55:50.267Z,0.00
2022-11-06T03:56:50.279Z,0.00
2022-11-06T03:57:50.267Z,0.00
2022-11-06T03:58:50.322Z,0.00
2022-11-06T03:59:50.229Z,0.00
2022-11-06T04:00:50.237Z,0.00
2022-11-06T04:01:50.350Z,0.00
2022-11-06T04:02:50.379Z,0.00
2022-11-06T04:03:50.202Z,0.00
2022-11-06T04:04:50.173Z,0.00
2022-11-06T04:05:50.166Z,0.00
2022-11-06T04:06:50.165Z,0.00
2022-11-06T04:07:50.267Z,0.00
2022-11-06T04:08:50.128Z,0.00
2022-11-06T04:09:50.135Z,0.00
2022-11-06T04:10:50.102Z,0.00
2022-11-06T04:11:50.116Z,0.00
2022-11-06T04:12:50.095Z,0.00
2022-11-06T04:13:50.076Z,0.00
2022-11-06T04:14:50.088Z,0.00
2022-11-06T04:15:50.082Z,0.00
2022-11-06T04:16:50.055Z,0.00
2022-11-06T04:17:50.041Z,0.00
2022-11-06T04:18:50.029Z,0.00
2022-11-06T04:19:50.012Z,0.00
2022-11-06T04:20:49.993Z,0.00
2022-11-06T04:21:49.994Z,0.00
2022-11-06T04:22:49.976Z,0.00
2022-11-06T04:23:49.983Z,0.00
2022-11-06T04:24:49.959Z,0.00
2022-11-06T04:25:49.944Z,0.00
2022-11-06T04:26:49.942Z,0.00
2022-11-06T04:27:49.921Z,0.00
2022-11-06T04:28:49.918Z,0.00
2022-11-06T04:29:49.906Z,0.00
2022-11-06T04:30:49.896Z,0.00
2022-11-06T04:31:49.883Z,0.00
2022-11-06T04:32:49.880Z,0.00
2022-11-06T04:33:49.856Z,0.00
2022-11-06T04:34:49.862Z,0.00
2022-11-06T04:35:49.836Z,0.00
2022-11-06T04:36:49.823Z,0.00
2022-11-06T04:37:49.816Z,0.00
2022-11-06T04:38:49.808Z,0.00
2022-11-06T04:39:49.899Z,0.00
2022-11-06T04:40:49.779Z,0.00
2022-11-06T04:41:49.788Z,0.00
2022-11-06T04:42:49.757Z,0.00
2022-11-06T04:43:49.743Z,0.00
2022-11-06T04:44:49.735Z,0.00
2022-11-06T04:45:49.738Z,0.00
2022-11-06T04:46:49.722Z,0.00
2022-11-06T04:47:49.702Z,0.00
2022-11-06T04:48:49.683Z,0.00
2022-11-06T04:49:49.689Z,0.00
2022-11-06T04:50:49.672Z,0.00
2022-11-06T04:51:49.664Z,0.00
2022-11-06T04:52:49.651Z,0.00
2022-11-06T04:53:49.633Z,0.00
2022-11-06T04:54:49.625Z,0.00
2022-11-06T04:55:49.645Z,0.00
2022-11-06T04:56:49.606Z,0.00
2022-11-06T04:57:49.603Z,0.00
2022-11-06T04:58:49.583Z,0.00
2022-11-06T04:59:49.571Z,0.00
2022-11-06T05:00:49.676Z,0.00
2022-11-06T05:01:49.671Z,0.00
2022-11-06T05:02:49.546Z,0.00
2022-11-06T05:03:49.559Z,0.00
2022-11-06T05:04:49.513Z,0.00
2022-11-06T05:05:49.504Z,0.00
2022-11-06T05:06:49.489Z,0.00
2022-11-06T05:07:49.481Z,0.00
2022-11-06T05:08:49.466Z,0.00
2022-11-06T05:09:49.467Z,0.00
2022-11-06T05:10:49.447Z,0.00
2022-11-06T05:11:49.456Z,0.00
2022-11-06T05:12:49.440Z,0.00
2022-11-06T05:13:49.422Z,0.00
2022-11-06T05:14:49.401Z,0.00
2022-11-06T05:15:49.386Z,0.00
2022-11-06T05:16:49.383Z,0.00
2022-11-06T05:17:49.369Z,0.00
2022-11-06T05:18:49.362Z,0.00
2022-11-06T05:19:49.352Z,0.00
2022-11-06T05:20:49.377Z,0.00
2022-11-06T05:21:49.346Z,0.00
2022-11-06T05:22:49.340Z,0.00
2022-11-06T05:23:49.311Z,0.00
2022-11-06T05:24:49.288Z,0.00
2022-11-06T05:25:49.283Z,0.00
2022-11-06T05:26:51.336Z,0.00
2022-11-06T05:27:50.284Z,0.00
2022-11-06T05:28:49.244Z,0.00
2022-11-06T05:29:49.232Z,0.00
2022-11-06T05:30:49.239Z,0.00
2022-11-06T05:31:49.239Z,0.00
2022-11-06T05:32:49.208Z,0.00
2022-11-06T05:33:49.195Z,0.00
2022-11-06T05:34:49.179Z,0.00
2022-11-06T05:35:49.166Z,0.00
2022-11-06T05:36:49.173Z,0.00
2022-11-06T05:37:49.153Z,0.00
2022-11-06T05:38:49.165Z,0.00
2022-11-06T05:39:49.129Z,0.00
2022-11-06T05:40:49.116Z,0.00
2022-11-06T05:41:49.101Z,0.00
2022-11-06T05:42:49.092Z,0.00
2022-11-06T05:43:49.107Z,0.00
2022-11-06T05:44:49.076Z,0.00
2022-11-06T05:45:49.064Z,0.00
2022-11-06T05:46:50.022Z,0.00
2022-11-06T05:47:49.045Z,0.00
2022-11-06T05:48:49.045Z,0.00
2022-11-06T05:49:49.022Z,0.00
2022-11-06T05:50:49.004Z,0.00
2022-11-06T05:51:48.997Z,0.00
2022-11-06T05:52:49.002Z,0.00
2022-11-06T05:53:48.985Z,0.00
2022-11-06T05:54:48.983Z,0.00
2022-11-06T05:55:48.950Z,0.00
2022-11-06T05:56:48.936Z,0.00
2022-11-06T05:57:48.938Z,0.00
2022-11-06T05:58:48.916Z,0.00
2022-11-06T05:59:48.932Z,0.00
2022-11-06T06:00:48.923Z,0.00
2022-11-06T06:01:49.047Z,0.00
2022-11-06T06:02:48.928Z,0.00
2022-11-06T06:03:48.866Z,0.00
2022-11-06T06:04:48.852Z,0.00
2022-11-06T06:05:48.848Z,0.00
2022-11-06T06:06:48.845Z,0.00
2022-11-06T06:07:48.830Z,0.00
2022-11-06T06:08:48.806Z,0.00
2022-11-06T06:09:48.798Z,0.00
2022-11-06T06:10:48.791Z,0.00
2022-11-06T06:11:48.799Z,0.00
2022-11-06T06:12:48.810Z,0.00
2022-11-06T06:13:48.758Z,0.00
2022-11-06T06:14:50.539Z,0.00
2022-11-06T06:15:48.886Z,0.00
2022-11-06T06:16:48.732Z,0.00
2022-11-06T06:17:48.716Z,0.00
2022-11-06T06:18:48.697Z,0.00
2022-11-06T06:19:48.691Z,0.00
2022-11-06T06:20:48.681Z,0.00
2022-11-06T06:21:48.672Z,0.00
2022-11-06T06:22:48.661Z,0.00
2022-11-06T06:23:48.653Z,0.00
2022-11-06T06:24:48.742Z,0.00
2022-11-06T06:25:48.617Z,5.62
2022-11-06T06:26:48.616Z,5.62
2022-11-06T06:27:48.603Z,5.62
2022-11-06T06:28:48.590Z,5.62
2022-11-06T06:29:48.602Z,5.62
2022-11-06T06:30:48.574Z,5.62
2022-11-06T06:31:48.585Z,5.62
2022-11-06T06:32:48.543Z,5.62
2022-11-06T06:33:48.540Z,11.25
2022-11-06T06:34:48.589Z,11.25
2022-11-06T06:35:48.518Z,11.25
2022-11-06T06:36:48.501Z,11.25
2022-11-06T06:37:48.491Z,11.25
2022-11-06T06:38:48.481Z,16.88
2022-11-06T06:39:48.491Z,16.88
2022-11-06T06:40:48.467Z,16.88
2022-11-06T06:41:48.451Z,16.88
2022-11-06T06:42:48.435Z,16.88
2022-11-06T06:43:48.421Z,22.50
2022-11-06T06:44:48.419Z,22.50
2022-11-06T06:45:48.413Z,22.50
2022-11-06T06:46:48.393Z,22.50
2022-11-06T06:47:48.411Z,28.12
2022-11-06T06:48:48.365Z,28.12
2022-11-06T06:49:48.379Z,28.12
2022-11-06T06:50:48.358Z,28.12
2022-11-06T06:51:48.343Z,33.75
2022-11-06T06:52:48.335Z,33.75
2022-11-06T06:53:48.323Z,33.75
2022-11-06T06:54:48.320Z,39.38
2022-11-06T06:55:48.292Z,39.38
2022-11-06T06:56:48.291Z,39.38
2022-11-06T06:57:48.275Z,39.38
2022-11-06T06:58:48.291Z,45.00
2022-11-06T06:59:48.260Z,45.00
2022-11-06T07:00:48.339Z,45.00
2022-11-06T07:01:48.423Z,50.62
2022-11-06T07:02:48.211Z,50.62
2022-11-06T07:03:48.341Z,50.62
2022-11-06T07:04:48.214Z,50.62
2022-11-06T07:05:48.180Z,56.25
2022-11-06T07:06:48.202Z,56.25
2022-11-06T07:07:48.200Z,56.25
2022-11-06T07:08:48.143Z,61.88
2022-11-06T07:09:48.136Z,61.88
2022-11-06T07:10:48.132Z,61.88
2022-11-06T07:11:48.120Z,61.88
2022-11-06T07:12:48.127Z,61.88
2022-11-06T07:13:48.100Z,67.50
2022-11-06T07:14:48.080Z,67.50
2022-11-06T07:15:48.103Z,67.50
2022-11-06T07:16:53.463Z,67.50
2022-11-06T07:17:49.057Z,67.50
2022-11-06T07:18:48.041Z,73.12
2022-11-06T07:19:48.052Z,73.12
2022-11-06T07:20:48.020Z,73.12
2022-11-06T07:21:48.022Z,73.12
2022-11-06T07:22:47.998Z,73.12
2022-11-06T07:23:48.000Z,78.75
2022-11-06T07:24:47.976Z,78.75
2022-11-06T07:25:47.959Z,78.75
2022-11-06T07:26:47.952Z,78.75
2022-11-06T07:27:47.961Z,78.75
2022-11-06T07:28:47.955Z,84.38
2022-11-06T07:29:47.924Z,84.38
2022-11-06T07:30:47.913Z,84.38
2022-11-06T07:31:47.895Z,84.38
2022-11-06T07:32:47.882Z,84.38
2022-11-06T07:33:47.883Z,90.00
2022-11-06T07:34:47.873Z,90.00
2022-11-06T07:35:47.870Z,90.00
2022-11-06T07:36:47.836Z,90.00
2022-11-06T07:37:47.922Z,90.00
2022-11-06T07:38:47.815Z,95.62
2022-11-06T07:39:47.827Z,95.62
2022-11-06T07:40:47.795Z,95.62
2022-11-06T07:41:47.787Z,95.62
2022-11-06T07:42:47.783Z,95.62
2022-11-06T07:43:47.797Z,101.25
2022-11-06T07:44:47.768Z,101.25
2022-11-06T07:45:47.765Z,101.25
2022-11-06T07:46:47.753Z,101.25
2022-11-06T07:47:47.765Z,101.25
2022-11-06T07:48:47.714Z,106.88
2022-11-06T07:49:50.892Z,106.88
2022-11-06T07:50:47.698Z,106.88
2022-11-06T07:51:47.698Z,112.50
2022-11-06T07:52:47.690Z,112.50
2022-11-06T07:53:47.660Z,112.50
2022-11-06T07:54:47.640Z,112.50
2022-11-06T07:55:47.653Z,118.12
2022-11-06T07:56:47.640Z,118.12
2022-11-06T07:57:47.618Z,118.12
2022-11-06T07:58:47.607Z,118.12
2022-11-06T07:59:47.612Z,118.12
2022-11-06T08:00:47.653Z,118.12
2022-11-06T08:01:47.802Z,123.75
2022-11-06T08:02:47.580Z,123.75
2022-11-06T08:03:47.590Z,118.12
2022-11-06T08:04:47.564Z,118.12
2022-11-06T08:05:47.533Z,118.12
2022-11-06T08:06:47.508Z,118.12
2022-11-06T08:07:47.537Z,118.12
2022-11-06T08:08:47.513Z,112.50
2022-11-06T08:09:47.475Z,112.50
2022-11-06T08:10:47.464Z,112.50
2022-11-06T08:11:47.461Z,112.50
2022-11-06T08:12:47.442Z,118.12
2022-11-06T08:13:47.440Z,118.12
2022-11-06T08:14:47.437Z,118.12
2022-11-06T08:15:47.419Z,118.12
2022-11-06T08:16:47.435Z,118.12
2022-11-06T08:17:47.389Z,123.75
2022-11-06T08:18:47.395Z,123.75
2022-11-06T08:19:47.365Z,123.75
2022-11-06T08:20:47.355Z,123.75
2022-11-06T08:21:47.356Z,123.75
2022-11-06T08:22:47.344Z,123.75
2022-11-06T08:23:47.607Z,123.75
2022-11-06T08:24:47.328Z,123.75
2022-11-06T08:25:47.303Z,129.38
2022-11-06T08:26:47.316Z,129.38
2022-11-06T08:27:47.280Z,129.38
2022-11-06T08:28:47.308Z,129.38
2022-11-06T08:29:47.273Z,129.38
2022-11-06T08:30:47.265Z,129.38
2022-11-06T08:31:47.245Z,135.00
2022-11-06T08:32:47.225Z,135.00
2022-11-06T08:33:47.233Z,135.00
2022-11-06T08:34:47.223Z,135.00
2022-11-06T08:35:47.194Z,135.00
2022-11-06T08:36:49.709Z,135.00
2022-11-06T08:37:47.198Z,135.00
2022-11-06T08:38:47.187Z,135.00
2022-11-06T08:39:47.177Z,135.00
2022-11-06T08:40:53.223Z,135.00
2022-11-06T08:41:48.129Z,135.00
2022-11-06T08:42:47.134Z,135.00
2022-11-06T08:43:47.103Z,135.00
2022-11-06T08:44:47.109Z,135.00
2022-11-06T08:45:47.094Z,135.00
2022-11-06T08:46:51.734Z,135.00
2022-11-06T08:47:48.081Z,135.00
2022-11-06T08:48:47.086Z,135.00
2022-11-06T08:49:47.053Z,135.00
2022-11-06T08:50:47.037Z,135.00
2022-11-06T08:51:47.051Z,135.00
2022-11-06T08:52:47.014Z,135.00
2022-11-06T08:53:47.079Z,135.00
2022-11-06T08:54:46.999Z,135.00
2022-11-06T08:55:47.018Z,135.00
2022-11-06T08:56:46.972Z,135.00
2022-11-06T08:57:46.952Z,135.00
2022-11-06T08:58:51.431Z,140.62
2022-11-06T08:59:47.958Z,140.62
2022-11-06T09:00:46.998Z,140.62
2022-11-06T09:01:47.098Z,135.00
2022-11-06T09:02:46.906Z,135.00
2022-11-06T09:03:46.909Z,135.00
2022-11-06T09:04:46.901Z,135.00
2022-11-06T09:05:46.870Z,135.00
2022-11-06T09:06:46.860Z,140.62
2022-11-06T09:07:46.859Z,140.62
2022-11-06T09:08:46.838Z,140.62
2022-11-06T09:09:46.869Z,140.62
2022-11-06T09:10:46.827Z,140.62
2022-11-06T09:11:46.823Z,140.62
2022-11-06T09:12:46.814Z,140.62
2022-11-06T09:13:46.809Z,140.62
2022-11-06T09:14:46.768Z,146.25
2022-11-06T09:15:46.761Z,146.25
2022-11-06T09:16:46.755Z,146.25
2022-11-06T09:17:46.743Z,146.25
2022-11-06T09:18:46.731Z,151.88
2022-11-06T09:19:46.730Z,151.88
2022-11-06T09:20:46.717Z,151.88
2022-11-06T09:21:51.866Z,157.50
2022-11-06T09:22:47.683Z,151.88
2022-11-06T09:23:46.684Z,157.50
2022-11-06T09:25:04.180Z,157.50
2022-11-06T09:25:47.647Z,163.12
2022-11-06T09:26:46.647Z,163.12
2022-11-06T09:27:46.649Z,168.75
2022-11-06T09:28:46.626Z,168.75
2022-11-06T09:29:46.607Z,168.75
2022-11-06T09:30:46.605Z,168.75
2022-11-06T09:31:46.589Z,168.75
2022-11-06T09:32:46.607Z,168.75
2022-11-06T09:33:46.562Z,163.12
2022-11-06T09:34:46.560Z,168.75
2022-11-06T09:35:46.538Z,163.12
2022-11-06T09:36:46.570Z,163.12
2022-11-06T09:37:46.519Z,163.12
2022-11-06T09:38:46.538Z,163.12
2022-11-06T09:39:46.494Z,163.12
2022-11-06T09:40:46.490Z,168.75
2022-11-06T09:41:46.481Z,168.75
2022-11-06T09:42:46.492Z,163.12
2022-11-06T09:44:47.444Z,163.12
2022-11-06T09:45:48.855Z,163.12
2022-11-06T09:46:47.429Z,163.12
2022-11-06T09:47:46.406Z,163.12
2022-11-06T09:48:46.413Z,168.75
2022-11-06T09:49:46.390Z,168.75
2022-11-06T09:50:46.385Z,163.12
2022-11-06T09:51:46.379Z,163.12
2022-11-06T09:52:46.360Z,163.12
2022-11-06T09:53:46.359Z,157.50
2022-11-06T09:54:46.345Z,151.88
2022-11-06T09:55:46.325Z,151.88
2022-11-06T09:56:46.323Z,151.88
2022-11-06T09:57:46.324Z,146.25
2022-11-06T09:58:46.285Z,146.25
2022-11-06T09:59:46.317Z,146.25
2022-11-06T10:00:46.369Z,146.25
2022-11-06T10:01:46.421Z,146.25
2022-11-06T10:02:46.327Z,146.25
2022-11-06T10:03:46.238Z,146.25
2022-11-06T10:04:46.227Z,146.25
2022-11-06T10:05:46.232Z,146.25
2022-11-06T10:06:46.234Z,135.00
2022-11-06T10:07:46.217Z,140.62
2022-11-06T10:08:46.185Z,140.62
2022-11-06T10:09:46.166Z,140.62
2022-11-06T10:10:46.162Z,140.62
2022-11-06T10:11:46.146Z,140.62
2022-11-06T10:12:46.149Z,140.62
2022-11-06T10:13:46.128Z,157.50
2022-11-06T10:14:46.119Z,140.62
2022-11-06T10:15:46.142Z,135.00
2022-11-06T10:16:46.101Z,135.00
2022-11-06T10:17:46.106Z,140.62
2022-11-06T10:18:46.071Z,140.62
2022-11-06T10:19:46.069Z,146.25
2022-11-06T10:20:46.060Z,146.25
2022-11-06T10:21:46.061Z,151.88
2022-11-06T10:22:46.023Z,151.88
2022-11-06T10:23:46.019Z,157.50
2022-11-06T10:24:46.023Z,157.50
2022-11-06T10:25:46.010Z,163.12
2022-11-06T10:26:45.986Z,163.12
2022-11-06T10:27:45.985Z,163.12
2022-11-06T10:28:45.964Z,163.12
2022-11-06T10:29:45.985Z,163.12
2022-11-06T10:30:45.942Z,163.12
2022-11-06T10:31:46.052Z,168.75
2022-11-06T10:32:45.912Z,168.75
2022-11-06T10:33:45.908Z,174.38
2022-11-06T10:34:45.902Z,174.38
2022-11-06T10:35:45.899Z,174.38
2022-11-06T10:36:49.655Z,180.00
2022-11-06T10:37:45.882Z,180.00
2022-11-06T10:38:45.853Z,180.00
2022-11-06T10:39:45.848Z,180.00
2022-11-06T10:40:45.848Z,180.00
2022-11-06T10:41:45.851Z,180.00
2022-11-06T10:42:45.822Z,180.00
2022-11-06T10:43:45.806Z,180.00
2022-11-06T10:44:45.807Z,180.00
2022-11-06T10:45:45.780Z,174.38
2022-11-06T10:46:45.768Z,174.38
2022-11-06T10:47:45.771Z,168.75
2022-11-06T10:48:45.739Z,163.12
2022-11-06T10:49:45.742Z,163.12
2022-11-06T10:50:45.756Z,157.50
2022-11-06T10:51:45.709Z,157.50
2022-11-06T10:52:45.699Z,151.88
2022-11-06T10:53:45.690Z,151.88
2022-11-06T10:54:45.677Z,151.88
2022-11-06T10:55:45.672Z,157.50
2022-11-06T10:56:45.671Z,157.50
2022-11-06T10:57:45.639Z,163.12
2022-11-06T10:58:45.640Z,168.75
2022-11-06T10:59:45.629Z,168.75
2022-11-06T11:00:45.690Z,168.75
2022-11-06T11:01:45.844Z,168.75
2022-11-06T11:02:45.592Z,168.75
2022-11-06T11:03:45.602Z,168.75
2022-11-06T11:04:45.577Z,163.12
2022-11-06T11:05:45.551Z,163.12
2022-11-06T11:06:45.545Z,163.12
2022-11-06T11:07:45.563Z,163.12
2022-11-06T11:08:45.539Z,163.12
2022-11-06T11:09:45.504Z,163.12
2022-11-06T11:10:56.054Z,163.12
2022-11-06T11:11:46.508Z,163.12
2022-11-06T11:12:45.470Z,163.12
2022-11-06T11:13:45.465Z,163.12
2022-11-06T11:14:45.479Z,163.12
2022-11-06T11:15:45.461Z,163.12
2022-11-06T11:16:45.426Z,168.75
2022-11-06T11:17:45.423Z,174.38
2022-11-06T11:18:45.401Z,180.00
2022-11-06T11:19:45.414Z,185.62
2022-11-06T11:20:45.382Z,191.25
2022-11-06T11:21:45.383Z,191.25
2022-11-06T11:22:45.418Z,191.25
2022-11-06T11:23:45.353Z,191.25
2022-11-06T11:24:45.335Z,191.25
2022-11-06T11:25:45.339Z,191.25
2022-11-06T11:26:45.315Z,191.25
2022-11-06T11:27:45.325Z,191.25
2022-11-06T11:28:45.298Z,196.88
2022-11-06T11:29:45.323Z,196.88
2022-11-06T11:30:45.270Z,196.88
2022-11-06T11:31:45.266Z,191.25
2022-11-06T11:32:45.253Z,191.25
2022-11-06T11:33:45.253Z,191.25
2022-11-06T11:34:50.194Z,191.25
2022-11-06T11:35:46.331Z,191.25
2022-11-06T11:36:45.206Z,191.25
2022-11-06T11:37:45.197Z,196.88
2022-11-06T11:38:45.188Z,202.50
2022-11-06T11:39:45.190Z,208.12
2022-11-06T11:40:45.163Z,219.38
2022-11-06T11:41:45.147Z,219.38
2022-11-06T11:42:45.155Z,225.00
2022-11-06T11:43:45.145Z,230.62
2022-11-06T11:44:45.120Z,236.25
2022-11-06T11:45:45.108Z,241.88
2022-11-06T11:46:45.101Z,247.50
2022-11-06T11:47:45.091Z,247.50
2022-11-06T11:48:45.100Z,253.12
2022-11-06T11:49:45.061Z,258.75
2022-11-06T11:50:45.063Z,264.38
2022-11-06T11:51:45.072Z,264.38
2022-11-06T11:52:45.020Z,258.75
2022-11-06T11:53:45.008Z,258.75
2022-11-06T11:54:45.004Z,247.50
2022-11-06T11:55:45.009Z,241.88
2022-11-06T11:57:03.560Z,236.25
2022-11-06T11:57:45.967Z,230.62
2022-11-06T11:58:44.960Z,225.00
2022-11-06T11:59:44.943Z,213.75
2022-11-06T12:00:44.936Z,202.50
2022-11-06T12:01:45.022Z,196.88
2022-11-06T12:02:44.975Z,191.25
2022-11-06T12:03:44.904Z,185.62
2022-11-06T12:04:44.904Z,185.62
2022-11-06T12:05:44.873Z,180.00
2022-11-06T12:06:44.870Z,180.00
2022-11-06T12:07:46.431Z,180.00
2022-11-06T12:08:44.841Z,174.38
2022-11-06T12:09:44.836Z,168.75
2022-11-06T12:10:44.817Z,163.12
2022-11-06T12:11:44.808Z,168.75
2022-11-06T12:12:44.806Z,157.50
2022-11-06T12:13:44.790Z,163.12
2022-11-06T12:14:44.771Z,157.50
2022-11-06T12:15:44.763Z,151.88
2022-11-06T12:16:44.757Z,157.50
2022-11-06T12:17:44.739Z,157.50
2022-11-06T12:18:44.751Z,163.12
2022-11-06T12:19:44.723Z,168.75
2022-11-06T12:20:44.710Z,174.38
2022-11-06T12:21:44.693Z,168.75
2022-11-06T12:22:44.685Z,174.38
2022-11-06T12:23:44.690Z,185.62
2022-11-06T12:24:44.675Z,191.25
2022-11-06T12:25:44.648Z,202.50
2022-11-06T12:26:44.644Z,219.38
2022-11-06T12:27:44.623Z,213.75
2022-11-06T12:28:44.612Z,219.38
2022-11-06T12:29:44.611Z,208.12
2022-11-06T12:30:44.596Z,208.12
2022-11-06T12:31:44.586Z,191.25
2022-11-06T12:32:44.607Z,191.25
2022-11-06T12:34:05.596Z,241.88
2022-11-06T12:34:45.584Z,219.38
2022-11-06T12:35:44.534Z,208.12
2022-11-06T12:36:44.530Z,208.12
2022-11-06T12:37:44.525Z,196.88
2022-11-06T12:38:44.511Z,196.88
2022-11-06T12:39:44.519Z,191.25
2022-11-06T12:40:44.493Z,191.25
2022-11-06T12:41:44.464Z,191.25
2022-11-06T12:42:44.455Z,191.25
2022-11-06T12:43:44.463Z,196.88
2022-11-06T12:44:44.433Z,196.88
2022-11-06T12:45:44.428Z,202.50
2022-11-06T12:46:44.417Z,230.62
2022-11-06T12:47:44.407Z,225.00
2022-11-06T12:48:44.405Z,225.00
2022-11-06T12:49:44.383Z,241.88
2022-11-06T12:50:44.374Z,219.38
2022-11-06T12:51:44.354Z,213.75
2022-11-06T12:52:44.355Z,213.75
2022-11-06T12:53:44.331Z,208.12
2022-11-06T12:54:44.345Z,202.50
2022-11-06T12:55:44.336Z,202.50
2022-11-06T12:56:44.306Z,196.88